KCPC

Columbus County Municipal Airport

Whiteville, North Carolina, USA
METAR KCPC 211955Z AUTO 20004KT 10SM CLR 20/05 A3020 RMK AO2 T02010050
Observed Flight Rules
Jan-21 @ 19:55 UTC (36 minutes ago) Visual Flight Rules
Wind Visibility Clouds
200° at 4 knots 10 miles
  • Clear skies
Temperatures Readings
Current 20°C / 68°F
Dewpoint 5°C / 41°F
Humidity 38%
Altimeter 30.2" Hg
Pressure 1023 hPa
Elevation 29
METAR KCPC 211955Z AUTO 20004KT 10SM CLR 20/05 A3020 RMK AO2 T02010050
Observed Flight Rules
Jan-21 @ 19:55 UTC
(36 minutes ago)
VFR
Wind Visibility
200° at 4 knots 10 miles
Clouds
  • Clear skies
Temperature Dewpoint
20°C / 68°F 5°C / 41°F
Humidity Altimeter Pressure
38% 30.2" Hg 1023 hPa